Time;durP1;ratioP1;P1;durP2;ratioP2;P2;SDS_P1;SDS_P2;PMS_P1;PMS_P2;Temp;Humidity;BMP_temperature;BMP_pressure;BME280_temperature;BME280_humidity;BME280_pressure;Samples;Min_cycle;Max_cycle;Signal;HPM_P1;HPM_P2
2024/01/03 00:00:13;;;;;;;7.28;2.30;;;;;;;10.51;100.00;98480.31;5051880;28;20413;-72
2024/01/03 00:02:38;;;;;;;8.35;2.95;;;;;;;10.50;100.00;98492.84;5034472;28;20075;-72
2024/01/03 00:05:08;;;;;;;8.70;2.40;;;;;;;10.52;100.00;98489.91;5034229;28;20061;-71
2024/01/03 00:07:33;;;;;;;9.38;2.47;;;;;;;10.55;100.00;98506.19;5052061;28;20028;-71
2024/01/03 00:10:00;;;;;;;11.05;2.45;;;;;;;10.58;100.00;98507.53;5052112;28;20499;-75
2024/01/03 00:12:26;;;;;;;12.30;3.78;;;;;;;10.53;100.00;98465.59;5034297;28;20116;-74
2024/01/03 00:14:51;;;;;;;8.02;2.17;;;;;;;10.49;100.00;98467.22;5052148;28;20117;-74
2024/01/03 00:17:18;;;;;;;13.57;3.67;;;;;;;10.55;100.00;98468.00;5034123;28;20112;-74
2024/01/03 00:19:44;;;;;;;5.15;2.22;;;;;;;10.55;100.00;98497.38;5052140;28;20028;-75
2024/01/03 00:22:12;;;;;;;7.47;2.58;;;;;;;10.42;100.00;98505.97;5034057;28;20086;-76
2024/01/03 00:24:48;;;;;;;8.40;3.15;;;;;;;10.52;100.00;98514.75;5034193;28;20055;-75
2024/01/03 00:27:15;;;;;;;9.23;3.25;;;;;;;10.51;100.00;98541.75;5052150;28;20029;-75
2024/01/03 00:29:48;;;;;;;12.07;2.65;;;;;;;10.48;100.00;98518.25;5033900;28;20024;-74
2024/01/03 00:32:13;;;;;;;11.90;2.75;;;;;;;10.48;100.00;98516.38;5051881;28;20083;-74
2024/01/03 00:34:39;;;;;;;11.57;2.97;;;;;;;10.49;100.00;98530.53;5033713;28;20029;-73
2024/01/03 00:37:20;;;;;;;9.90;3.10;;;;;;;10.51;100.00;98555.91;5052054;28;20037;-75
2024/01/03 00:39:46;;;;;;;12.43;3.63;;;;;;;10.53;100.00;98531.59;5033929;28;20028;-74
2024/01/03 00:42:11;;;;;;;8.68;2.83;;;;;;;10.46;100.00;98536.44;5033868;28;20362;-74
2024/01/03 00:44:37;;;;;;;15.15;3.72;;;;;;;10.33;100.00;98539.63;5034485;28;20545;-75
2024/01/03 00:47:03;;;;;;;13.68;3.80;;;;;;;10.37;100.00;98548.69;5035288;28;20120;-74
2024/01/03 00:49:29;;;;;;;12.30;3.47;;;;;;;10.37;100.00;98560.19;5052115;28;20029;-74
2024/01/03 00:51:55;;;;;;;13.75;3.60;;;;;;;10.29;100.00;98530.56;5051873;28;20029;-74
2024/01/03 00:54:22;;;;;;;11.43;3.60;;;;;;;10.30;100.00;98548.19;5034206;28;20086;-73
2024/01/03 00:56:49;;;;;;;17.58;4.70;;;;;;;10.30;100.00;98527.63;5052277;28;20033;-73
2024/01/03 00:59:16;;;;;;;12.23;3.90;;;;;;;10.18;100.00;98546.56;5035079;28;20417;-75
2024/01/03 01:01:42;;;;;;;12.82;3.78;;;;;;;10.16;100.00;98534.56;5033559;28;20029;-75
2024/01/03 01:04:08;;;;;;;11.57;3.90;;;;;;;10.26;100.00;98553.28;5033423;28;20555;-74
2024/01/03 01:06:34;;;;;;;18.38;5.22;;;;;;;10.22;100.00;98520.97;5051698;28;20108;-73
2024/01/03 01:09:03;;;;;;;18.50;5.10;;;;;;;10.20;100.00;98565.81;5051363;28;20029;-74
2024/01/03 01:11:29;;;;;;;19.92;3.70;;;;;;;10.13;100.00;98564.47;5051174;28;20134;-76
2024/01/03 01:13:55;;;;;;;14.25;4.25;;;;;;;10.13;100.00;98537.75;5051309;28;20462;-75
2024/01/03 01:16:20;;;;;;;11.40;4.35;;;;;;;10.06;100.00;98515.84;5051142;28;20044;-75
2024/01/03 01:18:46;;;;;;;11.80;3.30;;;;;;;10.18;100.00;98565.25;5052436;28;20036;-74
2024/01/03 01:21:11;;;;;;;15.43;4.03;;;;;;;10.12;100.00;98569.00;5034686;28;20377;-74
2024/01/03 01:23:42;;;;;;;11.48;3.97;;;;;;;10.17;100.00;98560.19;5052031;28;20474;-74
2024/01/03 01:26:10;;;;;;;18.48;4.55;;;;;;;10.20;100.00;98586.38;5051445;28;20061;-74
2024/01/03 01:28:35;;;;;;;12.60;3.40;;;;;;;10.12;100.00;98579.69;5051153;28;20029;-74
2024/01/03 01:31:00;;;;;;;16.13;4.15;;;;;;;10.09;100.00;98587.41;5033329;28;20357;-75
2024/01/03 01:33:26;;;;;;;20.13;5.82;;;;;;;10.05;100.00;98595.16;5035424;28;20033;-75
2024/01/03 01:35:51;;;;;;;15.25;3.83;;;;;;;10.12;100.00;98587.69;5036432;28;20115;-75
2024/01/03 01:38:17;;;;;;;13.18;3.88;;;;;;;10.13;100.00;98591.97;5054486;28;20466;-74
2024/01/03 01:40:42;;;;;;;12.88;4.15;;;;;;;10.22;100.00;98595.75;5036554;28;20029;-75
2024/01/03 01:43:08;;;;;;;16.95;4.53;;;;;;;10.16;100.00;98604.78;5055178;28;20031;-74
2024/01/03 01:45:33;;;;;;;13.13;4.15;;;;;;;10.16;100.00;98604.00;5054556;28;20036;-76
2024/01/03 01:48:03;;;;;;;21.88;3.92;;;;;;;10.22;100.00;98624.31;5036827;28;20170;-73
2024/01/03 01:50:29;;;;;;;17.10;4.65;;;;;;;10.20;100.00;98589.88;5054856;28;20048;-74
2024/01/03 01:52:54;;;;;;;11.88;3.75;;;;;;;10.24;100.00;98614.16;5037266;28;20466;-75
2024/01/03 01:55:21;;;;;;;14.77;4.05;;;;;;;10.14;100.00;98630.97;5054684;28;20071;-75
2024/01/03 01:57:49;;;;;;;15.23;3.40;;;;;;;10.22;100.00;98613.63;5054684;28;20032;-75
2024/01/03 02:00:14;;;;;;;11.77;4.35;;;;;;;10.19;100.00;98620.28;5054737;28;20366;-74
2024/01/03 02:02:42;;;;;;;15.77;4.55;;;;;;;10.14;100.00;98630.97;5036786;28;20027;-74
2024/01/03 02:05:09;;;;;;;20.52;4.13;;;;;;;10.18;100.00;98601.84;5036709;28;20121;-75
2024/01/03 02:07:35;;;;;;;17.02;4.50;;;;;;;10.24;100.00;98622.97;5036333;28;20028;-74
2024/01/03 02:10:01;;;;;;;13.90;4.00;;;;;;;10.17;100.00;98654.47;5053710;28;20032;-75
2024/01/03 02:12:27;;;;;;;21.17;4.82;;;;;;;10.14;100.00;98632.84;5053427;28;20449;-75
2024/01/03 02:14:53;;;;;;;13.48;3.35;;;;;;;10.15;100.00;98640.56;5053696;28;20100;-74
2024/01/03 02:17:18;;;;;;;12.18;3.95;;;;;;;10.30;100.00;98658.50;5035848;28;20436;-74
2024/01/03 02:19:44;;;;;;;16.08;3.95;;;;;;;10.20;100.00;98659.31;5053634;28;20029;-75
2024/01/03 02:22:09;;;;;;;13.98;3.78;;;;;;;10.22;100.00;98651.81;5053835;28;20052;-75
2024/01/03 02:24:34;;;;;;;15.60;3.90;;;;;;;10.23;100.00;98629.38;5053515;28;20021;-74
2024/01/03 02:27:00;;;;;;;13.65;4.35;;;;;;;10.09;100.00;98644.28;5053602;28;20500;-75
2024/01/03 02:29:25;;;;;;;18.40;4.28;;;;;;;10.12;100.00;98635.75;5053504;28;20370;-75
2024/01/03 02:31:50;;;;;;;13.82;4.22;;;;;;;10.07;100.00;98643.75;5053454;28;20032;-75
2024/01/03 02:34:16;;;;;;;13.63;4.40;;;;;;;10.01;100.00;98650.16;5035566;28;20082;-74
2024/01/03 02:36:41;;;;;;;17.15;3.90;;;;;;;9.95;100.00;98656.56;5053202;28;20119;-75
2024/01/03 02:39:07;;;;;;;14.07;3.20;;;;;;;9.96;100.00;98652.00;5035599;28;20036;-75
2024/01/03 02:41:32;;;;;;;18.50;4.05;;;;;;;9.84;100.00;98652.25;5035477;28;20044;-75
2024/01/03 02:43:57;;;;;;;14.85;4.38;;;;;;;9.94;100.00;98645.06;5034475;28;20021;-74
2024/01/03 02:46:23;;;;;;;15.18;4.18;;;;;;;9.88;100.00;98645.31;5052956;28;20044;-74
2024/01/03 02:48:48;;;;;;;18.38;4.05;;;;;;;9.77;100.00;98652.50;5053278;28;20032;-74
2024/01/03 02:51:21;;;;;;;12.43;3.33;;;;;;;9.77;100.00;98663.16;5035192;28;20119;-75
2024/01/03 02:53:46;;;;;;;13.75;4.20;;;;;;;9.86;100.00;98652.81;5035130;28;20035;-73
2024/01/03 02:56:12;;;;;;;16.63;4.50;;;;;;;9.87;100.00;98671.22;5035213;28;20025;-74
2024/01/03 02:58:37;;;;;;;24.35;4.35;;;;;;;9.83;100.00;98655.97;5053279;28;20103;-73
2024/01/03 03:01:06;;;;;;;14.57;4.82;;;;;;;9.79;100.00;98657.56;5052922;28;20059;-74
2024/01/03 03:03:32;;;;;;;15.25;3.95;;;;;;;9.73;100.00;98639.94;5052885;28;20075;-73
2024/01/03 03:05:57;;;;;;;13.88;4.22;;;;;;;9.86;100.00;98655.47;5052873;28;20061;-74
2024/01/03 03:08:23;;;;;;;14.82;4.07;;;;;;;9.76;100.00;98658.09;5034943;28;20021;-75
2024/01/03 03:10:48;;;;;;;15.95;4.20;;;;;;;9.72;100.00;98655.16;5053292;28;20099;-74
2024/01/03 03:13:13;;;;;;;15.80;5.50;;;;;;;9.69;100.00;98657.53;5034876;28;20139;-75
2024/01/03 03:15:39;;;;;;;20.60;5.75;;;;;;;9.62;100.00;98655.94;5052511;28;20043;-76
2024/01/03 03:18:06;;;;;;;17.33;4.60;;;;;;;9.54;100.00;98674.28;5052309;28;20432;-75
2024/01/03 03:20:32;;;;;;;11.90;4.20;;;;;;;9.61;100.00;98670.31;5052356;28;20028;-76
2024/01/03 03:22:57;;;;;;;12.25;3.60;;;;;;;9.53;100.00;98662.81;5052304;28;20029;-75
2024/01/03 03:25:23;;;;;;;15.02;4.00;;;;;;;9.56;100.00;98672.19;5052193;28;20033;-74
2024/01/03 03:27:48;;;;;;;13.55;4.97;;;;;;;9.58;100.00;98675.38;5052154;28;20025;-75
2024/01/03 03:30:14;;;;;;;22.65;4.18;;;;;;;9.60;100.00;98665.25;5034273;28;20585;-76
2024/01/03 03:32:39;;;;;;;19.10;6.18;;;;;;;9.65;100.00;98675.13;5034431;28;20393;-75
2024/01/03 03:35:05;;;;;;;14.88;4.40;;;;;;;9.66;100.00;98666.88;5051890;28;20430;-73
2024/01/03 03:37:30;;;;;;;17.08;4.80;;;;;;;9.59;100.00;98677.78;5052016;28;20032;-74
2024/01/03 03:39:55;;;;;;;14.82;5.13;;;;;;;9.54;100.00;98682.28;5034049;28;20390;-72
2024/01/03 03:42:22;;;;;;;17.77;4.00;;;;;;;9.52;100.00;98679.88;5051992;28;20370;-76
2024/01/03 03:44:47;;;;;;;20.05;6.05;;;;;;;9.56;100.00;98677.53;5052013;28;20096;-75
2024/01/03 03:47:13;;;;;;;15.38;4.47;;;;;;;9.46;100.00;98666.78;5051879;28;20423;-74
2024/01/03 03:49:38;;;;;;;20.63;5.43;;;;;;;9.43;100.00;98676.09;5033903;28;20025;-75
2024/01/03 03:52:04;;;;;;;17.40;5.25;;;;;;;9.34;100.00;98663.53;5051672;28;20441;-75
2024/01/03 03:54:29;;;;;;;19.75;4.80;;;;;;;9.24;100.00;98665.06;5051624;28;20025;-75
2024/01/03 03:56:54;;;;;;;17.27;4.53;;;;;;;9.19;100.00;98670.38;5051288;28;20040;-75
2024/01/03 03:59:20;;;;;;;13.88;3.63;;;;;;;9.13;100.00;98657.28;5033738;28;20029;-75
2024/01/03 04:01:49;;;;;;;19.15;5.05;;;;;;;9.23;100.00;98652.81;5051632;28;20021;-74
2024/01/03 04:04:15;;;;;;;22.17;3.75;;;;;;;9.03;100.00;98670.56;5051651;28;20036;-75
2024/01/03 04:06:42;;;;;;;21.73;5.35;;;;;;;8.96;100.00;98668.94;5051740;28;20029;-75
2024/01/03 04:09:08;;;;;;;23.05;4.43;;;;;;;8.93;100.00;98674.75;5033707;28;20405;-75
2024/01/03 04:11:33;;;;;;;23.83;5.20;;;;;;;8.98;100.00;98656.16;5051553;28;20418;-75
2024/01/03 04:13:59;;;;;;;20.98;5.03;;;;;;;8.95;100.00;98677.16;5051420;28;20036;-74
2024/01/03 04:16:24;;;;;;;14.50;4.70;;;;;;;9.09;100.00;98688.19;5033466;28;20025;-74
2024/01/03 04:18:49;;;;;;;9.25;3.67;;;;;;;9.11;100.00;98686.06;5033297;28;20036;-74
2024/01/03 04:21:15;;;;;;;14.32;3.28;;;;;;;9.09;100.00;98670.34;5051306;28;20028;-75
2024/01/03 04:23:40;;;;;;;14.38;4.32;;;;;;;9.11;100.00;98686.06;5033409;28;20358;-75
2024/01/03 04:26:05;;;;;;;16.13;4.32;;;;;;;9.28;100.00;98694.72;5033355;28;20032;-74
2024/01/03 04:28:31;;;;;;;9.27;3.08;;;;;;;9.34;100.00;98688.34;5050865;28;20116;-73
2024/01/03 04:30:56;;;;;;;13.55;3.83;;;;;;;9.32;100.00;98693.13;5051126;28;20476;-74
2024/01/03 04:33:21;;;;;;;9.13;3.03;;;;;;;9.31;100.00;98692.34;5033240;28;20386;-75
2024/01/03 04:35:47;;;;;;;10.35;3.60;;;;;;;9.35;100.00;98692.63;5051236;28;20037;-74
2024/01/03 04:38:12;;;;;;;15.85;4.57;;;;;;;9.32;100.00;98693.94;5051106;28;20036;-74
2024/01/03 04:40:38;;;;;;;14.10;3.83;;;;;;;9.35;100.00;98676.59;5051137;28;20021;-73
2024/01/03 04:43:04;;;;;;;9.10;3.55;;;;;;;9.33;100.00;98694.75;5051000;28;20486;-75
2024/01/03 04:45:29;;;;;;;7.40;3.22;;;;;;;9.28;100.00;98692.84;5033153;28;20035;-75
2024/01/03 04:47:55;;;;;;;11.15;3.83;;;;;;;9.23;100.00;98668.00;5033415;28;20481;-73
2024/01/03 04:50:20;;;;;;;9.13;2.72;;;;;;;9.34;100.00;98701.69;5051071;28;20065;-75
2024/01/03 04:52:46;;;;;;;8.20;3.55;;;;;;;9.41;100.00;98726.25;5033114;28;20029;-73
2024/01/03 04:55:12;;;;;;;11.15;3.45;;;;;;;9.41;100.00;98680.91;5032926;28;20032;-73
2024/01/03 04:57:38;;;;;;;8.88;2.78;;;;;;;9.39;100.00;98688.38;5032961;28;20032;-74
2024/01/03 05:00:06;;;;;;;8.80;2.78;;;;;;;9.43;100.00;98699.31;5051197;28;20155;-75
2024/01/03 05:02:32;;;;;;;8.48;2.88;;;;;;;9.39;100.00;98680.34;5050906;28;20373;-74
2024/01/03 05:04:57;;;;;;;8.20;2.35;;;;;;;9.47;100.00;98687.84;5050981;28;20032;-74
2024/01/03 05:07:24;;;;;;;9.80;3.03;;;;;;;9.41;100.00;98712.91;5051217;28;20105;-75
2024/01/03 05:09:49;;;;;;;7.45;3.42;;;;;;;9.28;100.00;98702.72;5036276;28;20021;-74
2024/01/03 05:12:14;;;;;;;13.80;3.30;;;;;;;9.26;100.00;98705.66;5054101;28;20029;-74
2024/01/03 05:14:40;;;;;;;9.25;3.25;;;;;;;9.20;100.00;98697.84;5054008;28;20447;-75
2024/01/03 05:17:05;;;;;;;9.98;2.95;;;;;;;9.14;100.00;98701.56;5036526;28;20446;-75
2024/01/03 05:19:31;;;;;;;9.27;2.70;;;;;;;8.88;100.00;98712.03;5036477;28;20032;-76
2024/01/03 05:21:56;;;;;;;10.05;2.35;;;;;;;8.80;100.00;98711.72;5054158;28;20033;-76
2024/01/03 05:24:21;;;;;;;8.73;2.60;;;;;;;8.61;100.00;98697.97;5054038;28;20353;-77
2024/01/03 05:26:47;;;;;;;7.57;2.55;;;;;;;8.55;100.00;98715.75;5054232;28;20492;-77
2024/01/03 05:29:12;;;;;;;9.95;2.97;;;;;;;8.58;100.00;98720.59;5036367;28;20033;-74
2024/01/03 05:31:38;;;;;;;6.43;2.70;;;;;;;8.62;100.00;98699.56;5054514;28;20025;-76
2024/01/03 05:34:04;;;;;;;6.75;2.53;;;;;;;8.62;100.00;98711.03;5036436;28;20021;-74
2024/01/03 05:36:29;;;;;;;11.57;2.40;;;;;;;8.63;100.00;98714.50;5036233;28;20134;-77
2024/01/03 05:38:55;;;;;;;5.45;2.35;;;;;;;8.73;100.00;98703.94;5036341;28;20028;-74
2024/01/03 05:41:20;;;;;;;10.57;2.40;;;;;;;8.68;100.00;98703.91;5054118;28;20032;-76
2024/01/03 05:43:45;;;;;;;8.65;2.67;;;;;;;8.70;100.00;98709.78;5036267;28;20021;-75
2024/01/03 05:46:11;;;;;;;4.97;2.50;;;;;;;8.70;100.00;98696.47;5054199;28;20061;-75
2024/01/03 05:48:36;;;;;;;5.68;2.55;;;;;;;8.62;100.00;98703.03;5054100;28;20067;-76
2024/01/03 05:51:02;;;;;;;5.30;2.22;;;;;;;8.56;100.00;98684.59;5036208;28;20033;-75
2024/01/03 05:53:28;;;;;;;4.25;2.22;;;;;;;8.57;100.00;98672.88;5035875;28;20124;-74
2024/01/03 05:55:53;;;;;;;6.95;2.42;;;;;;;8.41;100.00;98711.91;5053849;28;20474;-76
2024/01/03 05:58:18;;;;;;;4.28;2.15;;;;;;;8.35;100.00;98697.72;5036017;28;20025;-76
2024/01/03 06:00:44;;;;;;;3.50;1.60;;;;;;;8.33;100.00;98712.31;5035875;28;20124;-75
2024/01/03 06:03:09;;;;;;;5.85;2.13;;;;;;;8.36;100.00;98710.00;5053986;28;20067;-75
2024/01/03 06:05:34;;;;;;;8.90;2.65;;;;;;;8.32;100.00;98708.06;5053852;28;20036;-76
2024/01/03 06:08:00;;;;;;;9.43;2.97;;;;;;;8.34;100.00;98717.44;5053809;28;20029;-76
2024/01/03 06:10:25;;;;;;;5.40;1.95;;;;;;;8.31;100.00;98709.91;5035845;28;20029;-76
2024/01/03 06:12:51;;;;;;;5.47;2.13;;;;;;;8.31;100.00;98728.56;5035930;28;20025;-76
2024/01/03 06:15:16;;;;;;;7.13;2.45;;;;;;;8.19;100.00;98711.94;5053482;28;20112;-75
2024/01/03 06:17:41;;;;;;;6.80;2.08;;;;;;;8.09;100.00;98733.09;5053708;28;20025;-77
2024/01/03 06:20:07;;;;;;;7.18;2.20;;;;;;;8.03;100.00;98718.94;5035720;28;20457;-77
2024/01/03 06:22:33;;;;;;;7.57;2.70;;;;;;;7.97;100.00;98719.16;5053678;28;20401;-77
2024/01/03 06:24:59;;;;;;;8.27;2.72;;;;;;;7.97;100.00;98722.59;5035829;28;20025;-78
2024/01/03 06:27:24;;;;;;;6.85;2.30;;;;;;;7.89;100.00;98732.91;5053422;28;20492;-79
2024/01/03 06:29:49;;;;;;;4.70;2.20;;;;;;;7.90;100.00;98713.22;5035699;28;20025;-79
2024/01/03 06:32:15;;;;;;;7.38;2.50;;;;;;;7.91;100.00;98714.81;5035770;28;20100;-81
2024/01/03 06:34:40;;;;;;;6.95;2.22;;;;;;;7.83;100.00;98724.06;5035514;28;20029;-81
2024/01/03 06:37:06;;;;;;;6.80;2.38;;;;;;;7.80;100.00;98721.06;5035831;28;20119;-81
2024/01/03 06:39:31;;;;;;;6.07;1.80;;;;;;;7.67;100.00;98708.94;5053363;28;20086;-83
2024/01/03 06:41:56;;;;;;;8.05;2.13;;;;;;;7.67;100.00;98719.59;5053519;28;20037;-84
2024/01/03 06:44:22;;;;;;;9.75;2.10;;;;;;;7.65;100.00;98719.03;5053578;28;20029;-83
2024/01/03 06:46:47;;;;;;;6.30;1.92;;;;;;;7.64;100.00;98728.06;5053448;28;20035;-85
2024/01/03 06:49:12;;;;;;;6.43;2.05;;;;;;;7.59;100.00;98733.31;5035641;28;20434;-84
2024/01/03 06:51:38;;;;;;;6.63;2.78;;;;;;;7.61;100.00;98718.72;5035562;28;20082;-84
2024/01/03 06:54:03;;;;;;;8.95;2.55;;;;;;;7.54;100.00;98730.59;5035415;28;20036;-83
2024/01/03 06:56:28;;;;;;;5.82;2.30;;;;;;;7.51;100.00;98733.72;5053235;28;20112;-84
2024/01/03 06:59:00;;;;;;;6.10;2.10;;;;;;;7.47;100.00;98730.75;5035378;28;20072;-84
2024/01/03 07:01:25;;;;;;;8.70;3.20;;;;;;;7.52;100.00;98744.16;5053373;28;20428;-86
2024/01/03 07:03:51;;;;;;;7.25;1.92;;;;;;;7.44;100.00;98744.53;5052860;28;20103;-86
2024/01/03 07:06:16;;;;;;;4.32;1.55;;;;;;;7.40;100.00;98759.38;5053117;28;20441;-85
2024/01/03 07:08:42;;;;;;;2.25;1.63;;;;;;;7.38;100.00;98737.56;5053068;28;20116;-86
2024/01/03 07:11:09;;;;;;;3.63;1.63;;;;;;;7.31;100.00;98742.25;5052808;28;20025;-84
2024/01/03 07:13:34;;;;;;;3.67;2.05;;;;;;;7.12;100.00;98747.03;5035097;28;20588;-83
2024/01/03 07:16:00;;;;;;;6.78;2.13;;;;;;;6.98;100.00;98738.59;5052793;28;20025;-83
2024/01/03 07:18:25;;;;;;;2.25;1.48;;;;;;;6.93;100.00;98751.75;5052498;28;20036;-83
2024/01/03 07:20:50;;;;;;;1.38;1.23;;;;;;;6.92;100.00;98758.13;5052743;28;20017;-82
2024/01/03 07:23:17;;;;;;;4.85;1.40;;;;;;;6.89;100.00;98753.31;5035047;28;20025;-82
2024/01/03 07:25:42;;;;;;;3.00;1.30;;;;;;;6.86;100.00;98760.94;5035058;28;20498;-81
2024/01/03 07:28:07;;;;;;;1.50;1.40;;;;;;;6.90;100.00;98765.53;5052298;28;20029;-80
2024/01/03 07:30:33;;;;;;;2.17;1.65;;;;;;;6.84;100.00;98766.50;5051706;28;20108;-80
2024/01/03 07:32:58;;;;;;;1.30;1.20;;;;;;;6.82;100.00;98772.06;5051982;28;20107;-81
2024/01/03 07:35:24;;;;;;;3.38;1.70;;;;;;;6.80;100.00;98779.47;5052346;28;20491;-80
2024/01/03 07:37:50;;;;;;;1.42;1.30;;;;;;;6.76;100.00;98772.22;5052610;28;20021;-81
2024/01/03 07:40:16;;;;;;;1.40;1.30;;;;;;;6.72;100.00;98760.47;5034769;28;20060;-81
2024/01/03 07:42:41;;;;;;;2.97;1.50;;;;;;;6.76;100.00;98780.19;5034791;28;20399;-82
2024/01/03 07:45:07;;;;;;;4.40;1.52;;;;;;;6.78;100.00;98778.91;5052309;28;20037;-83
2024/01/03 07:47:33;;;;;;;3.40;1.58;;;;;;;6.76;100.00;98783.66;5052349;28;20389;-82
2024/01/03 07:49:58;;;;;;;3.70;1.70;;;;;;;6.73;100.00;98778.00;5052276;28;20025;-82
2024/01/03 07:52:24;;;;;;;4.00;1.88;;;;;;;6.82;100.00;98780.03;5052325;28;20049;-82
2024/01/03 07:54:49;;;;;;;2.53;2.15;;;;;;;6.87;100.00;98781.16;5052089;28;20060;-81
2024/01/03 07:57:14;;;;;;;5.60;2.63;;;;;;;6.91;100.00;98769.81;5052038;28;20021;-83
2024/01/03 07:59:42;;;;;;;6.53;2.80;;;;;;;7.04;100.00;98790.75;5034280;28;20025;-81
2024/01/03 08:02:08;;;;;;;6.60;3.20;;;;;;;7.00;100.00;98791.47;5051705;28;20111;-81
2024/01/03 08:04:33;;;;;;;6.30;3.00;;;;;;;7.04;100.00;98790.75;5033937;28;20112;-81
2024/01/03 08:06:58;;;;;;;7.72;2.95;;;;;;;7.04;100.00;98790.75;5033953;28;20028;-79
2024/01/03 08:09:24;;;;;;;8.65;3.03;;;;;;;7.18;100.00;98785.09;5051539;28;20031;-80
2024/01/03 08:11:49;;;;;;;5.50;2.40;;;;;;;7.13;100.00;98791.94;5051354;28;20031;-81
2024/01/03 08:14:15;;;;;;;9.73;3.42;;;;;;;7.12;100.00;98797.50;5033725;28;20521;-81
2024/01/03 08:16:40;;;;;;;7.22;3.58;;;;;;;7.23;100.00;98793.16;5033646;28;20029;-81
2024/01/03 08:19:05;;;;;;;5.35;2.42;;;;;;;7.23;100.00;98787.84;5051558;28;20029;-81
2024/01/03 08:21:31;;;;;;;6.25;2.75;;;;;;;7.26;100.00;98798.00;5051397;28;20048;-79
2024/01/03 08:23:56;;;;;;;6.60;2.97;;;;;;;7.23;100.00;98782.50;5033718;28;20032;-80
2024/01/03 08:26:22;;;;;;;12.73;3.00;;;;;;;7.19;100.00;98797.34;5051562;28;20059;-80
2024/01/03 08:28:47;;;;;;;11.50;2.60;;;;;;;7.27;100.00;98805.72;5033650;28;20056;-81
2024/01/03 08:31:16;;;;;;;8.95;2.70;;;;;;;7.33;100.00;98803.94;5051355;28;20029;-81
2024/01/03 08:33:43;;;;;;;8.95;2.45;;;;;;;7.28;100.00;98806.53;5033560;28;20055;-80
2024/01/03 08:36:12;;;;;;;8.32;2.50;;;;;;;7.27;100.00;98800.41;5033331;28;20064;-83
2024/01/03 08:38:38;;;;;;;13.93;2.47;;;;;;;7.27;100.00;98804.94;5051164;28;20033;-83
2024/01/03 08:41:11;;;;;;;12.60;2.83;;;;;;;7.25;100.00;98807.03;5051217;28;20032;-82
2024/01/03 08:43:36;;;;;;;11.55;3.50;;;;;;;7.39;100.00;98829.56;5053392;28;20028;-80
2024/01/03 08:46:04;;;;;;;14.13;3.58;;;;;;;7.39;100.00;98809.09;5036984;28;20504;-80
2024/01/03 08:48:29;;;;;;;12.02;2.60;;;;;;;7.42;100.00;98805.13;5036956;28;20029;-81
2024/01/03 08:50:54;;;;;;;16.83;3.58;;;;;;;7.42;100.00;98810.47;5054768;28;20025;-80
2024/01/03 08:53:20;;;;;;;8.45;2.63;;;;;;;7.54;100.00;98815.69;5054767;28;20017;-79
2024/01/03 08:55:45;;;;;;;10.13;3.17;;;;;;;7.57;100.00;98831.16;5036729;28;20056;-80
2024/01/03 08:58:10;;;;;;;13.27;3.38;;;;;;;7.61;100.00;98827.78;5054646;28;20025;-81
2024/01/03 09:00:36;;;;;;;10.25;2.95;;;;;;;7.60;100.00;98810.22;5054511;28;20031;-82
2024/01/03 09:03:02;;;;;;;10.63;3.33;;;;;;;7.64;100.00;98821.97;5036671;28;20032;-81
2024/01/03 09:05:27;;;;;;;16.70;4.07;;;;;;;7.79;100.00;98829.34;5054567;28;20032;-79
2024/01/03 09:07:52;;;;;;;10.35;3.10;;;;;;;7.84;100.00;98839.25;5054474;28;20071;-80
2024/01/03 09:10:18;;;;;;;13.95;4.97;;;;;;;7.86;100.00;98823.84;5054489;28;20036;-83
2024/01/03 09:12:43;;;;;;;18.05;3.20;;;;;;;8.02;100.00;98830.97;5036588;28;20025;-82
2024/01/03 09:15:09;;;;;;;15.05;3.30;;;;;;;8.05;100.00;98838.47;5054197;28;20036;-80
2024/01/03 09:17:34;;;;;;;18.48;3.75;;;;;;;8.29;100.00;98849.69;5054255;28;20021;-82
2024/01/03 09:20:00;;;;;;;12.38;3.72;;;;;;;8.25;100.00;98844.03;5054216;28;20473;-81
2024/01/03 09:22:25;;;;;;;13.73;3.53;;;;;;;8.29;100.00;98845.16;5054428;28;20021;-82
2024/01/03 09:24:50;;;;;;;15.32;3.60;;;;;;;8.31;100.00;98847.56;5036316;28;20035;-85
2024/01/03 09:27:17;;;;;;;16.13;3.70;;;;;;;8.41;100.00;98849.59;5036441;28;20033;-84
2024/01/03 09:29:43;;;;;;;18.17;3.25;;;;;;;8.44;100.00;98838.44;5054156;28;20024;-82
2024/01/03 09:32:08;;;;;;;11.98;3.38;;;;;;;8.59;100.00;98838.59;5054243;28;20090;-83
2024/01/03 09:34:40;;;;;;;17.10;4.65;;;;;;;8.83;100.00;98833.78;5036379;28;20035;-83
2024/01/03 09:37:06;;;;;;;9.68;2.92;;;;;;;8.92;100.00;98849.06;5036268;28;20033;-80
2024/01/03 09:39:32;;;;;;;14.80;4.10;;;;;;;9.02;100.00;98842.22;5054152;28;20070;-80
2024/01/03 09:41:57;;;;;;;14.75;3.70;;;;;;;8.98;100.00;98848.06;5036063;28;20464;-80
2024/01/03 09:44:23;;;;;;;14.93;4.18;;;;;;;8.99;100.00;98856.88;5036074;28;20434;-79
2024/01/03 09:46:49;;;;;;;17.13;4.10;;;;;;;9.13;100.00;98835.91;5036046;28;20025;-78
2024/01/03 09:49:18;;;;;;;16.80;3.60;;;;;;;9.25;100.00;98857.88;5035957;28;20035;-79
2024/01/03 09:51:46;;;;;;;13.32;4.07;;;;;;;9.30;100.00;98847.28;5053902;28;20477;-80
2024/01/03 09:54:12;;;;;;;13.45;3.72;;;;;;;9.35;100.00;98862.50;5053303;28;20432;-81
2024/01/03 09:56:41;;;;;;;15.65;4.22;;;;;;;9.39;100.00;98860.94;5035722;28;20032;-82
2024/01/03 09:59:08;;;;;;;12.18;3.22;;;;;;;9.41;100.00;98864.94;5053734;28;20029;-80
2024/01/03 10:01:34;;;;;;;13.73;3.38;;;;;;;9.52;100.00;98853.28;5035718;28;20492;-79
2024/01/03 10:03:59;;;;;;;14.90;3.78;;;;;;;9.47;100.00;98863.91;5035739;28;20063;-78
2024/01/03 10:06:26;;;;;;;12.50;3.10;;;;;;;9.50;100.00;98879.41;5053729;28;20068;-84
2024/01/03 10:09:02;;;;;;;13.32;3.78;;;;;;;9.44;100.00;98879.63;5035739;28;20029;-82
2024/01/03 10:11:28;;;;;;;13.00;3.95;;;;;;;9.42;100.00;98879.09;5053698;28;20127;-83
2024/01/03 10:13:55;;;;;;;18.55;4.97;;;;;;;9.47;100.00;98871.13;5053532;28;20488;-79
2024/01/03 10:16:24;;;;;;;14.55;4.15;;;;;;;9.54;100.00;98872.53;5035527;28;20051;-81
2024/01/03 10:19:10;;;;;;;15.52;3.33;;;;;;;9.49;100.00;98891.16;5053355;28;20036;-82
2024/01/03 10:21:52;;;;;;;15.93;4.82;;;;;;;9.49;100.00;98885.81;5053542;28;20036;-83
2024/01/03 10:24:19;;;;;;;13.93;4.10;;;;;;;9.53;100.00;98884.25;5053277;28;20020;-81
2024/01/03 10:26:45;;;;;;;21.60;4.40;;;;;;;9.78;100.00;98893.50;5053236;28;20103;-79
2024/01/03 10:29:18;;;;;;;22.42;4.60;;;;;;;9.92;100.00;98892.81;5053176;28;20032;-80
2024/01/03 10:31:48;;;;;;;19.13;4.88;;;;;;;9.90;100.00;98892.25;5035380;28;20029;-79
2024/01/03 10:34:20;;;;;;;18.08;4.80;;;;;;;9.84;100.00;98892.50;5035468;28;20040;-79
2024/01/03 10:36:46;;;;;;;18.80;4.20;;;;;;;9.86;100.00;98896.50;5053093;28;20469;-81
2024/01/03 10:39:15;;;;;;;16.63;4.35;;;;;;;9.78;100.00;98890.81;5053087;28;20037;-82
2024/01/03 10:41:45;;;;;;;18.05;4.65;;;;;;;9.75;100.00;98905.50;5053118;28;20025;-83
2024/01/03 10:44:13;;;;;;;18.67;4.25;;;;;;;9.72;100.00;98865.97;5053032;28;20490;-82
2024/01/03 10:46:40;;;;;;;17.92;4.43;;;;;;;9.76;100.00;98895.63;5052930;28;20500;-83
2024/01/03 10:49:07;;;;;;;16.23;3.42;;;;;;;9.76;100.00;98900.97;5035142;28;20032;-81
2024/01/03 10:51:41;;;;;;;12.77;4.03;;;;;;;9.79;100.00;98877.22;5035016;28;20082;-81
2024/01/03 10:54:14;;;;;;;23.75;3.95;;;;;;;9.76;100.00;98896.41;5035069;28;20036;-83
2024/01/03 10:56:51;;;;;;;19.05;4.47;;;;;;;9.64;100.00;98893.16;5052657;28;20393;-79
2024/01/03 10:59:17;;;;;;;17.75;4.47;;;;;;;9.61;100.00;98893.66;5034857;28;20025;-80
2024/01/03 11:01:55;;;;;;;9.80;3.65;;;;;;;9.64;100.00;98893.16;5034837;28;20048;-81
2024/01/03 11:04:32;;;;;;;22.02;4.97;;;;;;;9.76;100.00;98891.09;5052594;28;20388;-81
2024/01/03 11:07:21;;;;;;;23.38;5.55;;;;;;;9.84;100.00;98887.97;5034256;28;20389;-80
2024/01/03 11:09:46;;;;;;;18.13;3.97;;;;;;;9.85;100.00;98886.91;5052584;28;20389;-80
2024/01/03 11:12:15;;;;;;;15.70;4.22;;;;;;;9.79;100.00;98895.91;5034536;28;20029;-80
2024/01/03 11:14:41;;;;;;;17.33;4.20;;;;;;;9.59;100.00;98883.25;5034336;28;20021;-80
2024/01/03 11:17:10;;;;;;;17.00;4.95;;;;;;;9.24;100.00;98873.06;5052576;28;20599;-80
2024/01/03 11:19:37;;;;;;;19.42;4.38;;;;;;;9.06;100.00;98897.44;5034702;28;20033;-81
2024/01/03 11:22:03;;;;;;;24.23;4.88;;;;;;;8.90;100.00;98891.16;5052533;28;20067;-82